^^
Station Historical Data
Daily Summary for May 23, 2017 Units:  English    Metric   Both
« Previous Day
Next Day »
Daily Weekly Monthly Yearly Custom
  High: Low: Average:
Temperature: 67.4 °F 52.4 °F 60.2 °F
Dew Point: 56.7 °F 50.7 °F 52.9 °F
Humidity: 98% 56% 78%
Wind Speed: 3.0mph 0.0mph 0.4mph
Wind Gust: 8.0mph - -
Wind- - WSW
Pressure: 29.98 in 29.81 in -
Precipitation: 0.00 in    
Historical Graphs
 
 
Tabular Data for May 23, 2017
Time Temperature Dew Point Pressure Wind Wind Speed Wind Gust Humidity Rainfall Rate (Hourly) Conditions
00:00 57.5 °F 56.7 °F 29.97 in Calm   1.0 mph 97% 0.00 in RA
00:15 57.4 °F 56.6 °F 29.97 in Calm   2.0 mph 97% 0.00 in CLR
00:30 57.4 °F 56.6 °F 29.97 in Calm   2.0 mph 97% 0.00 in CLR
00:45 57.3 °F 56.5 °F 29.97 in Calm   3.0 mph 97% 0.00 in CLR
01:00 57.3 °F 56.5 °F 29.98 in Calm   2.0 mph 97% 0.00 in CLR
02:15 57.4 °F 56.6 °F 29.96 in Calm   2.0 mph 97% 0.00 in BKN
02:30 57.4 °F 56.6 °F 29.95 in Calm   2.0 mph 97% 0.00 in BKN
02:45 57.1 °F 56.3 °F 29.94 in Calm   1.0 mph 97% 0.00 in BKN
03:00 56.7 °F 55.9 °F 29.94 in Calm   1.0 mph 97% 0.00 in BKN
03:15 56.3 °F 55.4 °F 29.94 in Calm   1.0 mph 97% 0.00 in BKN
03:30 55.8 °F 55.0 °F 29.95 in Calm     97% 0.00 in BKN
03:45 56.4 °F 55.8 °F 29.95 in NW 1.0 mph 5.0 mph 98% 0.00 in BKN
04:00 56.4 °F 55.8 °F 29.95 in Calm   6.0 mph 98% 0.00 in BKN
04:15 56.3 °F 55.5 °F 29.95 in Calm   2.0 mph 97% 0.00 in BKN
04:30 56.1 °F 55.2 °F 29.95 in Calm   2.0 mph 97% 0.00 in BKN
04:45 55.5 °F 54.7 °F 29.95 in Calm   3.0 mph 97% 0.00 in BKN
05:00 54.9 °F 54.1 °F 29.96 in Calm   1.0 mph 97% 0.00 in BKN
05:15 54.2 °F 53.4 °F 29.95 in Calm   1.0 mph 97% 0.00 in SCT
05:30 53.7 °F 52.9 °F 29.95 in Calm   1.0 mph 97% 0.00 in SCT
05:45 53.4 °F 52.6 °F 29.96 in Calm   1.0 mph 97% 0.00 in SCT
06:00 53.0 °F 52.2 °F 29.96 in Calm     97% 0.00 in SCT
06:15 52.7 °F 51.8 °F 29.96 in Calm     97% 0.00 in SCT
06:30 52.5 °F 51.7 °F 29.97 in Calm   1.0 mph 97% 0.00 in SCT
06:45 52.4 °F 51.6 °F 29.97 in Calm   1.0 mph 97% 0.00 in SCT
07:00 52.5 °F 51.7 °F 29.98 in Calm   1.0 mph 97% 0.00 in SCT
07:15 53.1 °F 52.3 °F 29.98 in Calm   1.0 mph 97% 0.00 in CLR
07:30 53.8 °F 53.0 °F 29.98 in Calm   3.0 mph 97% 0.00 in CLR
07:45 54.2 °F 53.1 °F 29.98 in Calm   2.0 mph 96% 0.00 in CLR
08:00 54.8 °F 53.4 °F 29.97 in Calm   1.0 mph 95% 0.00 in CLR
08:15 55.3 °F 53.6 °F 29.97 in Calm   3.0 mph 94% 0.00 in FEW
08:30 56.1 °F 53.2 °F 29.98 in Calm   3.0 mph 90% 0.00 in FEW
08:45 57.1 °F 53.0 °F 29.97 in NE 1.0 mph 5.0 mph 86% 0.00 in FEW
09:00 58.0 °F 52.2 °F 29.97 in North 1.0 mph 5.0 mph 81% 0.00 in FEW
09:15 59.1 °F 53.2 °F 29.97 in Calm   4.0 mph 81% 0.00 in SCT
09:30 58.9 °F 52.4 °F 29.96 in WNW 1.0 mph 3.0 mph 79% 0.00 in SCT
09:45 59.1 °F 53.3 °F 29.97 in West 1.0 mph 3.0 mph 81% 0.00 in SCT
10:00 58.9 °F 52.1 °F 29.97 in West 1.0 mph 5.0 mph 78% 0.00 in SCT
10:15 60.6 °F 53.0 °F 29.96 in West 2.0 mph 4.0 mph 76% 0.00 in CLR
10:30 61.3 °F 52.9 °F 29.96 in NW 2.0 mph 5.0 mph 74% 0.00 in CLR
10:45 61.2 °F 53.2 °F 29.97 in West 1.0 mph 7.0 mph 75% 0.00 in CLR
11:00 61.4 °F 52.7 °F 29.97 in WSW 2.0 mph 6.0 mph 73% 0.00 in CLR
11:15 61.3 °F 51.8 °F 29.97 in WSW 1.0 mph 6.0 mph 71% 0.00 in CLR
11:30 62.8 °F 51.7 °F 29.96 in WSW 2.0 mph 4.0 mph 67% 0.00 in CLR
11:45 62.4 °F 51.3 °F 29.95 in West 1.0 mph 5.0 mph 67% 0.00 in CLR
12:00 63.2 °F 52.9 °F 29.94 in Calm   6.0 mph 69% 0.00 in CLR
12:15 63.8 °F 51.8 °F 29.95 in NW 2.0 mph 4.0 mph 65% 0.00 in CLR
12:30 64.2 °F 51.3 °F 29.94 in West 2.0 mph 6.0 mph 63% 0.00 in CLR
12:45 64.4 °F 51.1 °F 29.94 in NW 2.0 mph 5.0 mph 62% 0.00 in CLR
13:00 64.5 °F 51.2 °F 29.93 in NW 1.0 mph 6.0 mph 62% 0.00 in CLR
13:15 65.6 °F 50.9 °F 29.93 in WNW 3.0 mph 5.0 mph 59% 0.00 in CLR
13:30 65.6 °F 50.9 °F 29.93 in NNW 2.0 mph 8.0 mph 59% 0.00 in CLR
13:45 65.6 °F 51.3 °F 29.92 in WSW 1.0 mph 6.0 mph 60% 0.00 in CLR
14:00 65.0 °F 51.2 °F 29.91 in WNW 1.0 mph 7.0 mph 61% 0.00 in CLR
14:15 65.5 °F 51.7 °F 29.91 in SSW 1.0 mph 6.0 mph 61% 0.00 in FEW
14:30 65.7 °F 51.4 °F 29.91 in Calm   7.0 mph 60% 0.00 in FEW
14:45 66.4 °F 51.2 °F 29.90 in West 2.0 mph 6.0 mph 58% 0.00 in FEW
15:00 66.4 °F 50.7 °F 29.90 in Calm   4.0 mph 57% 0.00 in FEW
15:15 66.5 °F 51.7 °F 29.89 in Calm   3.0 mph 59% 0.00 in FEW
15:30 66.8 °F 51.6 °F 29.89 in WSW 1.0 mph 4.0 mph 58% 0.00 in FEW
16:00 67.4 °F 51.1 °F 29.88 in Calm   5.0 mph 56% 0.00 in FEW
16:15 67.1 °F 51.4 °F 29.88 in Calm   4.0 mph 57% 0.00 in CLR
16:30 67.0 °F 51.7 °F 29.88 in Calm   3.0 mph 58% 0.00 in CLR
16:45 66.8 °F 52.5 °F 29.87 in WNW 1.0 mph 4.0 mph 60% 0.00 in CLR
17:00 66.5 °F 51.3 °F 29.87 in Calm   4.0 mph 58% 0.00 in CLR
17:15 66.8 °F 52.0 °F 29.87 in WNW 1.0 mph 3.0 mph 59% 0.00 in FEW
17:30 66.7 °F 52.4 °F 29.86 in Calm   3.0 mph 60% 0.00 in FEW
17:45 66.2 °F 52.3 °F 29.85 in Calm   3.0 mph 61% 0.00 in FEW
18:00 66.3 °F 52.4 °F 29.85 in Calm   2.0 mph 61% 0.00 in FEW
18:15 65.9 °F 52.1 °F 29.85 in Calm   3.0 mph 61% 0.00 in FEW
18:30 65.6 °F 53.1 °F 29.84 in Calm   1.0 mph 64% 0.00 in FEW
18:45 65.5 °F 52.6 °F 29.84 in Calm   1.0 mph 63% 0.00 in FEW
19:00 64.5 °F 53.3 °F 29.84 in Calm   1.0 mph 67% 0.00 in FEW
19:15 63.9 °F 53.1 °F 29.84 in Calm     68% 0.00 in FEW
19:30 63.5 °F 53.5 °F 29.84 in Calm     70% 0.00 in FEW
19:45 62.7 °F 52.4 °F 29.84 in Calm     69% 0.00 in FEW
20:00 62.2 °F 52.7 °F 29.84 in Calm     71% 0.00 in FEW
20:15 61.6 °F 52.1 °F 29.84 in Calm     71% 0.00 in CLR
20:30 60.7 °F 51.6 °F 29.84 in Calm     72% 0.00 in CLR
20:45 59.9 °F 52.4 °F 29.84 in Calm     76% 0.00 in CLR
21:00 59.2 °F 52.7 °F 29.84 in Calm     79% 0.00 in CLR
21:15 58.6 °F 52.4 °F 29.84 in Calm     80% 0.00 in CLR
21:30 58.3 °F 52.9 °F 29.84 in Calm     82% 0.00 in CLR
21:45 57.9 °F 53.1 °F 29.85 in Calm     84% 0.00 in CLR
22:00 58.0 °F 52.5 °F 29.84 in Calm   1.0 mph 82% 0.00 in CLR
22:15 59.0 °F 52.5 °F 29.84 in Calm     79% 0.00 in CLR
22:30 59.5 °F 52.6 °F 29.84 in Calm     78% 0.00 in CLR
22:45 59.3 °F 52.4 °F 29.83 in Calm   1.0 mph 78% 0.00 in CLR
23:00 59.6 °F 52.0 °F 29.83 in Calm   1.0 mph 76% 0.00 in CLR
23:15 59.8 °F 51.9 °F 29.82 in Calm   1.0 mph 75% 0.00 in CLR
23:30 59.5 °F 51.9 °F 29.82 in Calm   1.0 mph 76% 0.00 in CLR
23:45 59.1 °F 51.9 °F 29.81 in Calm   1.0 mph 77% 0.00 in CLR
TarryTown NY Weather
Compliments of Weather Underground - 1.5 mb